Time,TemperatureF,DewpointF,PressureIn,WindDirection,WindDirectionDegrees,WindSpeedMPH,WindSpeedGustMPH,Humidity,HourlyPrecipIn,Conditions,Clouds,dailyrainin,SolarRadiationWatts/m^2,SoftwareType,DateUTC
2013-09-28 00:04:00,69.3,67.0,29.99,NNW,331,0.0,5.0,92,0.00,,,0.00,0,weatherlink.com 1.10,2013-09-28 04:04:00,
2013-09-28 00:19:00,69.1,67.0,29.99,NNE,28,0.0,6.0,93,0.00,,,0.00,0,weatherlink.com 1.10,2013-09-28 04:19:00,
2013-09-28 00:34:00,68.9,67.0,29.98,NNW,339,4.0,6.0,93,0.00,,,0.00,0,weatherlink.com 1.10,2013-09-28 04:34:00,
2013-09-28 00:49:00,68.9,67.0,29.98,North,9,1.0,4.0,94,0.00,,,0.00,0,weatherlink.com 1.10,2013-09-28 04:49:00,
2013-09-28 01:04:00,68.9,67.0,29.98,NNE,14,3.0,5.0,94,0.00,,,0.00,0,weatherlink.com 1.10,2013-09-28 05:04:00,
2013-09-28 01:19:00,68.9,67.0,29.98,North,5,1.0,4.0,94,0.00,,,0.00,0,weatherlink.com 1.10,2013-09-28 05:19:00,
2013-09-28 01:34:00,68.9,68.0,29.98,NNE,12,1.0,4.0,95,0.00,,,0.00,0,weatherlink.com 1.10,2013-09-28 05:34:00,
2013-09-28 01:49:00,68.8,67.0,29.97,North,355,0.0,3.0,95,0.00,,,0.00,0,weatherlink.com 1.10,2013-09-28 05:49:00,
2013-09-28 02:04:00,68.9,68.0,29.97,NNW,344,2.0,4.0,96,0.00,,,0.00,0,weatherlink.com 1.10,2013-09-28 06:04:00,
2013-09-28 02:19:00,69.0,68.0,29.97,North,5,1.0,5.0,96,0.00,,,0.00,0,weatherlink.com 1.10,2013-09-28 06:19:00,
2013-09-28 02:34:00,68.9,68.0,29.97,NNW,342,2.0,4.0,96,0.00,,,0.00,0,weatherlink.com 1.10,2013-09-28 06:34:00,
2013-09-28 02:49:00,68.8,68.0,29.97,NNW,344,1.0,4.0,96,0.00,,,0.00,0,weatherlink.com 1.10,2013-09-28 06:49:00,
2013-09-28 03:04:00,68.7,68.0,29.96,North,360,3.0,3.0,96,0.00,,,0.00,0,weatherlink.com 1.10,2013-09-28 07:04:00,
2013-09-28 03:19:00,68.9,68.0,29.96,North,355,1.0,5.0,97,0.00,,,0.00,0,weatherlink.com 1.10,2013-09-28 07:19:00,
2013-09-28 03:34:00,69.5,69.0,29.96,NE,44,2.0,6.0,97,0.00,,,0.00,0,weatherlink.com 1.10,2013-09-28 07:34:00,
2013-09-28 03:50:00,70.1,69.0,29.96,NE,46,4.0,6.0,97,0.00,,,0.00,0,weatherlink.com 1.10,2013-09-28 07:50:00,
2013-09-28 04:05:00,70.4,70.0,29.96,NNE,17,5.0,7.0,97,0.00,,,0.00,0,weatherlink.com 1.10,2013-09-28 08:05:00,
2013-09-28 04:19:00,70.5,69.0,29.96,NNE,19,1.0,8.0,96,0.00,,,0.00,0,weatherlink.com 1.10,2013-09-28 08:19:00,
2013-09-28 04:35:00,70.5,69.0,29.96,NE,38,5.0,6.0,96,0.00,,,0.00,0,weatherlink.com 1.10,2013-09-28 08:35:00,
2013-09-28 04:50:00,70.5,70.0,29.96,NNW,348,3.0,6.0,97,0.00,,,0.00,0,weatherlink.com 1.10,2013-09-28 08:50:00,
2013-09-28 05:05:00,70.5,70.0,29.96,NNW,333,3.0,5.0,97,0.00,,,0.00,0,weatherlink.com 1.10,2013-09-28 09:05:00,
2013-09-28 05:20:00,70.6,70.0,29.96,NNW,346,7.0,7.0,97,0.00,,,0.00,0,weatherlink.com 1.10,2013-09-28 09:20:00,
2013-09-28 05:35:00,70.8,70.0,29.97,North,5,2.0,7.0,97,0.00,,,0.00,0,weatherlink.com 1.10,2013-09-28 09:35:00,
2013-09-28 05:50:00,70.9,70.0,29.97,ENE,61,0.0,6.0,97,0.00,,,0.00,0,weatherlink.com 1.10,2013-09-28 09:50:00,
2013-09-28 06:05:00,71.0,70.0,29.98,NE,51,2.0,5.0,97,0.00,,,0.00,0,weatherlink.com 1.10,2013-09-28 10:05:00,
2013-09-28 06:20:00,71.0,70.0,29.98,NE,48,1.0,6.0,97,0.00,,,0.00,0,weatherlink.com 1.10,2013-09-28 10:20:00,
2013-09-28 06:35:00,70.9,70.0,29.99,NE,37,0.0,2.0,97,0.00,,,0.00,0,weatherlink.com 1.10,2013-09-28 10:35:00,
2013-09-28 06:50:00,70.9,70.0,29.99,NE,37,0.0,0.0,97,0.00,,,0.00,0,weatherlink.com 1.10,2013-09-28 10:50:00,
2013-09-28 07:05:00,70.9,70.0,30.00,East,79,0.0,1.0,97,0.00,,,0.00,0,weatherlink.com 1.10,2013-09-28 11:05:00,
2013-09-28 07:20:00,70.8,70.0,30.00,East,87,0.0,2.0,97,0.10,,,0.10,0,weatherlink.com 1.10,2013-09-28 11:20:00,
2013-09-28 07:36:00,70.6,70.0,30.01,NE,50,1.0,3.0,97,0.14,,,0.14,0,weatherlink.com 1.10,2013-09-28 11:36:00,
2013-09-28 07:50:00,70.3,69.0,30.01,NNE,27,0.0,3.0,97,0.19,,,0.19,0,weatherlink.com 1.10,2013-09-28 11:50:00,
2013-09-28 08:05:00,70.2,69.0,30.02,NNE,32,1.0,2.0,97,0.29,,,0.30,0,weatherlink.com 1.10,2013-09-28 12:05:00,
2013-09-28 08:21:00,70.3,70.0,30.02,NNE,32,0.0,1.0,98,0.35,,,0.46,9,weatherlink.com 1.10,2013-09-28 12:21:00,
2013-09-28 08:36:00,70.3,70.0,30.02,NNE,32,0.0,0.0,98,0.44,,,0.58,26,weatherlink.com 1.10,2013-09-28 12:36:00,
2013-09-28 09:06:00,70.4,70.0,30.03,NW,323,0.0,3.0,98,0.36,,,0.67,42,weatherlink.com 1.10,2013-09-28 13:06:00,
2013-09-28 09:21:00,70.6,70.0,30.04,NW,321,0.0,2.0,98,0.23,,,0.69,32,weatherlink.com 1.10,2013-09-28 13:21:00,
2013-09-28 09:36:00,70.7,70.0,30.03,North,349,2.0,3.0,98,0.23,,,0.81,56,weatherlink.com 1.10,2013-09-28 13:36:00,
2013-09-28 09:51:00,70.6,70.0,30.04,NW,304,3.0,6.0,98,0.24,,,0.88,51,weatherlink.com 1.10,2013-09-28 13:51:00,
2013-09-28 10:06:00,70.6,70.0,30.04,WNW,301,0.0,6.0,98,0.23,,,0.90,37,weatherlink.com 1.10,2013-09-28 14:06:00,
2013-09-28 10:21:00,70.5,70.0,30.05,ESE,109,0.0,2.0,98,0.25,,,0.94,32,weatherlink.com 1.10,2013-09-28 14:21:00,
2013-09-28 10:36:00,70.7,70.0,30.05,North,360,0.0,4.0,98,0.12,,,0.94,90,weatherlink.com 1.10,2013-09-28 14:36:00,
2013-09-28 10:52:00,71.0,70.0,30.06,ENE,71,2.0,5.0,98,0.06,,,0.94,28,weatherlink.com 1.10,2013-09-28 14:52:00,
2013-09-28 11:07:00,71.0,70.0,30.05,NNE,19,4.0,8.0,98,0.04,,,0.94,39,weatherlink.com 1.10,2013-09-28 15:07:00,
2013-09-28 11:21:00,71.3,71.0,30.05,NNE,19,5.0,9.0,98,0.00,,,0.94,91,weatherlink.com 1.10,2013-09-28 15:21:00,
2013-09-28 11:37:00,71.4,70.0,30.05,North,11,8.0,12.0,96,0.00,,,0.94,104,weatherlink.com 1.10,2013-09-28 15:37:00,
2013-09-28 11:52:00,71.3,70.0,30.07,East,92,3.0,9.0,96,0.00,,,0.94,25,weatherlink.com 1.10,2013-09-28 15:52:00,
2013-09-28 12:07:00,71.0,70.0,30.07,SSE,148,0.0,3.0,97,0.05,,,0.99,49,weatherlink.com 1.10,2013-09-28 16:07:00,
2013-09-28 12:22:00,70.9,70.0,30.07,ENE,63,1.0,3.0,97,0.11,,,1.05,62,weatherlink.com 1.10,2013-09-28 16:22:00,
2013-09-28 12:37:00,71.3,71.0,30.06,NE,36,5.0,5.0,98,0.11,,,1.05,111,weatherlink.com 1.10,2013-09-28 16:37:00,
2013-09-28 12:52:00,71.8,71.0,30.05,North,11,4.0,6.0,97,0.11,,,1.05,295,weatherlink.com 1.10,2013-09-28 16:52:00,
2013-09-28 13:07:00,72.7,72.0,30.05,NNE,22,5.0,7.0,96,0.07,,,1.06,156,weatherlink.com 1.10,2013-09-28 17:07:00,
2013-09-28 13:22:00,72.7,71.0,30.04,NNE,26,2.0,9.0,94,0.01,,,1.06,155,weatherlink.com 1.10,2013-09-28 17:22:00,
2013-09-28 13:37:00,73.3,71.0,30.04,North,355,2.0,11.0,93,0.01,,,1.06,390,weatherlink.com 1.10,2013-09-28 17:37:00,
2013-09-28 13:52:00,74.2,72.0,30.03,NE,53,3.0,10.0,92,0.01,,,1.06,369,weatherlink.com 1.10,2013-09-28 17:52:00,
2013-09-28 14:07:00,75.5,72.0,30.03,NE,40,9.0,15.0,88,0.00,,,1.06,422,weatherlink.com 1.10,2013-09-28 18:07:00,
2013-09-28 14:24:00,76.0,72.0,30.02,ENE,60,10.0,15.0,86,0.00,,,1.06,563,weatherlink.com 1.10,2013-09-28 18:24:00,
2013-09-28 14:38:00,75.7,71.0,30.02,North,360,5.0,11.0,86,0.00,,,1.06,306,weatherlink.com 1.10,2013-09-28 18:38:00,
2013-09-28 14:54:00,75.0,72.0,30.02,North,350,5.0,10.0,89,0.00,,,1.06,360,weatherlink.com 1.10,2013-09-28 18:54:00,
2013-09-28 15:08:00,74.8,71.0,30.02,ENE,63,5.0,13.0,89,0.00,,,1.06,250,weatherlink.com 1.10,2013-09-28 19:08:00,
2013-09-28 15:24:00,74.6,72.0,30.01,NNW,348,4.0,10.0,90,0.00,,,1.06,128,weatherlink.com 1.10,2013-09-28 19:24:00,
2013-09-28 15:38:00,74.0,71.0,30.02,NNE,12,5.0,13.0,90,0.00,,,1.06,130,weatherlink.com 1.10,2013-09-28 19:38:00,
2013-09-28 15:54:00,73.0,71.0,30.01,North,360,4.0,10.0,93,0.00,,,1.06,239,weatherlink.com 1.10,2013-09-28 19:54:00,
2013-09-28 16:08:00,73.5,71.0,30.01,ENE,76,7.0,10.0,92,0.00,,,1.06,163,weatherlink.com 1.10,2013-09-28 20:08:00,
2013-09-28 16:24:00,72.8,71.0,30.01,NE,38,5.0,9.0,94,0.00,,,1.06,111,weatherlink.com 1.10,2013-09-28 20:24:00,
2013-09-28 16:38:00,72.8,71.0,30.00,NE,41,3.0,7.0,93,0.00,,,1.06,151,weatherlink.com 1.10,2013-09-28 20:38:00,
2013-09-28 16:54:00,73.4,71.0,30.00,North,5,4.0,5.0,92,0.00,,,1.06,149,weatherlink.com 1.10,2013-09-28 20:54:00,
2013-09-28 17:08:00,74.0,72.0,30.00,North,5,2.0,6.0,92,0.00,,,1.06,141,weatherlink.com 1.10,2013-09-28 21:08:00,
2013-09-28 17:24:00,74.4,72.0,30.01,NNW,342,3.0,5.0,91,0.00,,,1.06,81,weatherlink.com 1.10,2013-09-28 21:24:00,
2013-09-28 17:38:00,74.6,71.0,30.01,West,264,6.0,10.0,88,0.00,,,1.06,130,weatherlink.com 1.10,2013-09-28 21:38:00,
2013-09-28 17:54:00,74.6,70.0,30.01,East,80,2.0,8.0,86,0.00,,,1.06,107,weatherlink.com 1.10,2013-09-28 21:54:00,
2013-09-28 18:08:00,74.3,70.0,30.01,North,5,7.0,10.0,86,0.00,,,1.06,86,weatherlink.com 1.10,2013-09-28 22:08:00,
2013-09-28 18:24:00,74.1,70.0,30.01,NE,53,5.0,10.0,86,0.00,,,1.06,67,weatherlink.com 1.10,2013-09-28 22:24:00,
2013-09-28 18:38:00,73.8,69.0,30.01,NE,39,2.0,9.0,86,0.00,,,1.06,26,weatherlink.com 1.10,2013-09-28 22:38:00,
2013-09-28 19:09:00,73.0,69.0,30.01,ENE,63,2.0,9.0,86,0.00,,,1.06,5,weatherlink.com 1.10,2013-09-28 23:09:00,
2013-09-28 19:24:00,72.6,69.0,30.01,North,5,2.0,9.0,87,0.00,,,1.06,0,weatherlink.com 1.10,2013-09-28 23:24:00,
2013-09-28 19:39:00,72.1,68.0,30.01,NNE,24,4.0,10.0,87,0.00,,,1.06,0,weatherlink.com 1.10,2013-09-28 23:39:00,
2013-09-28 19:54:00,71.8,68.0,30.02,NNE,29,2.0,7.0,88,0.00,,,1.06,0,weatherlink.com 1.10,2013-09-28 23:54:00,
2013-09-28 20:09:00,71.6,68.0,30.01,North,355,3.0,8.0,89,0.00,,,1.06,0,weatherlink.com 1.10,2013-09-29 00:09:00,
2013-09-28 20:24:00,71.5,68.0,30.02,NNW,341,4.0,9.0,89,0.00,,,1.06,0,weatherlink.com 1.10,2013-09-29 00:24:00,
2013-09-28 20:39:00,71.3,68.0,30.02,NE,51,2.0,6.0,90,0.00,,,1.06,0,weatherlink.com 1.10,2013-09-29 00:39:00,
2013-09-28 20:54:00,71.2,68.0,30.02,NE,50,0.0,8.0,90,0.00,,,1.06,0,weatherlink.com 1.10,2013-09-29 00:54:00,
2013-09-28 21:09:00,71.1,68.0,30.02,NNE,32,4.0,7.0,90,0.00,,,1.06,0,weatherlink.com 1.10,2013-09-29 01:09:00,
2013-09-28 21:24:00,71.2,68.0,30.03,NNE,15,5.0,7.0,90,0.00,,,1.06,0,weatherlink.com 1.10,2013-09-29 01:24:00,
2013-09-28 21:39:00,71.1,68.0,30.03,North,350,5.0,8.0,89,0.00,,,1.06,0,weatherlink.com 1.10,2013-09-29 01:39:00,
2013-09-28 21:55:00,71.0,68.0,30.03,ENE,62,1.0,6.0,89,0.00,,,1.06,0,weatherlink.com 1.10,2013-09-29 01:55:00,
2013-09-28 22:09:00,70.7,68.0,30.03,NE,53,2.0,4.0,90,0.00,,,1.06,0,weatherlink.com 1.10,2013-09-29 02:09:00,
2013-09-28 22:24:00,70.5,68.0,30.03,NNE,22,1.0,5.0,90,0.00,,,1.06,0,weatherlink.com 1.10,2013-09-29 02:24:00,
2013-09-28 22:39:00,70.4,67.0,30.02,North,360,2.0,5.0,90,0.00,,,1.06,0,weatherlink.com 1.10,2013-09-29 02:39:00,
2013-09-28 22:54:00,70.2,67.0,30.02,ENE,58,2.0,4.0,90,0.00,,,1.06,0,weatherlink.com 1.10,2013-09-29 02:54:00,
2013-09-28 23:10:00,70.0,67.0,30.02,NE,36,3.0,4.0,91,0.00,,,1.06,0,weatherlink.com 1.10,2013-09-29 03:10:00,
2013-09-28 23:24:00,69.7,67.0,30.02,NNE,17,0.0,3.0,91,0.00,,,1.06,0,weatherlink.com 1.10,2013-09-29 03:24:00,
2013-09-28 23:40:00,69.4,67.0,30.01,NNE,16,0.0,2.0,93,0.00,,,1.06,0,weatherlink.com 1.10,2013-09-29 03:40:00,
2013-09-28 23:55:00,68.8,67.0,30.01,NNE,16,0.0,0.0,93,0.00,,,1.06,0,weatherlink.com 1.10,2013-09-29 03:55:00,